Time;durP1;ratioP1;P1;durP2;ratioP2;P2;SDS_P1;SDS_P2;PMS_P1;PMS_P2;Temp;Humidity;BMP_temperature;BMP_pressure;BME280_temperature;BME280_humidity;BME280_pressure;Samples;Min_cycle;Max_cycle;Signal;HPM_P1;HPM_P2
2022/05/04 00:02:06;;;;;;;;;;;;;;;;;;;;;
2022/05/04 00:08:04;;;;;;;2.73;2.47;;;;;;;;;;4877540;29;20208;-86
2022/05/04 00:35:22;;;;;;;3.53;3.23;;;;;;;;;;4727035;30;20263;-86
2022/05/04 00:37:57;;;;;;;4.87;3.90;;;;;;;;;;4777809;29;20286;-87
2022/05/04 00:47:04;;;;;;;5.10;4.60;;;;;;;;;;4814386;29;20239;-85
2022/05/04 00:50:04;;;;;;;5.63;4.23;;;;;;;;;;4820589;29;20242;-85
2022/05/04 00:55:59;;;;;;;4.40;4.10;;;;;;;;;;4914034;29;20302;-85
2022/05/04 01:07:34;;;;;;;3.53;3.27;;;;;;;;;;4999918;28;20214;-85
2022/05/04 01:10:39;;;;;;;4.37;4.07;;;;;;;;;;5011885;28;20668;-85
2022/05/04 01:33:17;;;;;;;3.23;3.03;;;;;;;;;;4796096;29;20219;-85
2022/05/04 01:36:06;;;;;;;2.90;2.70;;;;;;;;;;4877614;29;20204;-85
2022/05/04 01:39:01;;;;;;;3.03;2.57;;;;;;;;;;4913707;29;20298;-85
2022/05/04 01:50:37;;;;;;;3.33;3.03;;;;;;;;;;4903065;29;20695;-85
2022/05/04 02:02:18;;;;;;;4.37;3.73;;;;;;;;;;4893250;29;20203;-86
2022/05/04 02:05:05;;;;;;;3.03;2.83;;;;;;;;;;4894633;29;20693;-85
2022/05/04 02:45:37;;;;;;;3.73;3.10;;;;;;;;;;4755759;30;20659;-86
2022/05/04 02:48:07;;;;;;;6.17;3.13;;;;;;;;;;4768929;30;20683;-86
2022/05/04 02:50:35;;;;;;;3.63;3.33;;;;;;;;;;4776049;29;20220;-86
2022/05/04 02:53:17;;;;;;;3.60;3.30;;;;;;;;;;4816435;29;20202;-87
2022/05/04 02:55:46;;;;;;;3.77;3.43;;;;;;;;;;4837155;29;20202;-86
2022/05/04 02:58:13;;;;;;;3.47;3.17;;;;;;;;;;4833638;29;20763;-86
2022/05/04 03:00:44;;;;;;;4.13;3.00;;;;;;;;;;4837231;29;20215;-85
2022/05/04 03:04:02;;;;;;;4.00;3.33;;;;;;;;;;4854154;29;20684;-84
2022/05/04 03:10:24;;;;;;;4.80;4.40;;;;;;;;;;4816383;29;20779;-85
2022/05/04 03:16:23;;;;;;;4.00;3.70;;;;;;;;;;4814788;29;20227;-84
2022/05/04 03:18:57;;;;;;;4.10;3.70;;;;;;;;;;4831697;29;20213;-84
2022/05/04 03:21:31;;;;;;;3.53;3.23;;;;;;;;;;4874994;29;20267;-85
2022/05/04 03:24:09;;;;;;;3.80;3.10;;;;;;;;;;4914440;29;20211;-84
2022/05/04 03:26:37;;;;;;;2.93;2.73;;;;;;;;;;4906864;29;20702;-85
2022/05/04 03:29:11;;;;;;;3.37;3.07;;;;;;;;;;4896581;29;20204;-85
2022/05/04 03:31:41;;;;;;;3.87;3.27;;;;;;;;;;4914857;29;20217;-85
2022/05/04 03:34:10;;;;;;;3.10;2.90;;;;;;;;;;4915424;29;20298;-86
2022/05/04 03:37:35;;;;;;;3.83;2.97;;;;;;;;;;4910615;29;20214;-86
2022/05/04 03:40:19;;;;;;;3.97;3.60;;;;;;;;;;4870030;29;20212;-85
2022/05/04 03:43:14;;;;;;;7.57;6.20;;;;;;;;;;4942394;29;20211;-84
2022/05/04 03:51:32;;;;;;;3.13;2.93;;;;;;;;;;5006434;28;20207;-82
2022/05/04 03:54:11;;;;;;;2.83;2.63;;;;;;;;;;5013817;28;20257;-83
2022/05/04 03:57:01;;;;;;;3.30;3.00;;;;;;;;;;5013056;28;20230;-83
2022/05/04 03:59:31;;;;;;;3.07;2.87;;;;;;;;;;5013334;28;20203;-83
2022/05/04 04:02:04;;;;;;;4.87;2.70;;;;;;;;;;5013389;28;20192;-83
2022/05/04 04:04:31;;;;;;;5.93;5.33;;;;;;;;;;5013377;28;20199;-84
2022/05/04 04:07:00;;;;;;;5.97;5.37;;;;;;;;;;5013162;28;20775;-80
2022/05/04 04:09:28;;;;;;;8.97;7.73;;;;;;;;;;5022302;28;20233;-84
2022/05/04 04:11:55;;;;;;;8.17;6.17;;;;;;;;;;5032901;28;20233;-84
2022/05/04 04:17:29;;;;;;;4.20;3.40;;;;;;;;;;5024893;28;20266;-83
2022/05/04 04:23:06;;;;;;;3.70;3.40;;;;;;;;;;4979909;28;20231;-85
2022/05/04 04:25:33;;;;;;;3.03;2.83;;;;;;;;;;5019150;28;20298;-82
2022/05/04 04:28:01;;;;;;;3.33;3.07;;;;;;;;;;5032756;28;20663;-83
2022/05/04 04:30:55;;;;;;;3.70;3.40;;;;;;;;;;5032305;28;20671;-83
2022/05/04 04:33:49;;;;;;;3.83;3.53;;;;;;;;;;5022917;28;20207;-83
2022/05/04 04:36:22;;;;;;;4.20;3.77;;;;;;;;;;5032249;28;20187;-82
2022/05/04 04:38:57;;;;;;;3.80;3.50;;;;;;;;;;5031487;28;20202;-85
2022/05/04 04:41:32;;;;;;;3.27;2.97;;;;;;;;;;5032219;28;20198;-83
2022/05/04 04:43:59;;;;;;;3.60;3.30;;;;;;;;;;5032376;28;20240;-84
2022/05/04 04:46:26;;;;;;;4.13;3.67;;;;;;;;;;5032559;28;20222;-84
2022/05/04 04:48:53;;;;;;;4.30;4.00;;;;;;;;;;5032373;28;20199;-85
2022/05/04 04:51:21;;;;;;;3.53;3.23;;;;;;;;;;5031618;28;20291;-84
2022/05/04 04:53:48;;;;;;;3.50;3.20;;;;;;;;;;5032556;28;20210;-84
2022/05/04 04:56:16;;;;;;;3.77;3.47;;;;;;;;;;5032397;28;20202;-83
2022/05/04 04:58:43;;;;;;;3.70;3.40;;;;;;;;;;5032554;28;20199;-84
2022/05/04 05:01:11;;;;;;;5.10;4.27;;;;;;;;;;5031749;28;20201;-84
2022/05/04 05:03:38;;;;;;;3.97;3.67;;;;;;;;;;5032153;28;20198;-84
2022/05/04 05:06:05;;;;;;;6.00;4.07;;;;;;;;;;5031878;28;20233;-84
2022/05/04 05:08:32;;;;;;;5.33;3.93;;;;;;;;;;5032361;28;20221;-84
2022/05/04 05:10:59;;;;;;;7.17;5.50;;;;;;;;;;5032168;28;20210;-84
2022/05/04 05:13:28;;;;;;;6.80;5.57;;;;;;;;;;5031730;28;20200;-84
2022/05/04 05:16:09;;;;;;;5.30;4.80;;;;;;;;;;5031752;28;20236;-85
2022/05/04 05:18:37;;;;;;;4.33;3.77;;;;;;;;;;5032384;28;20639;-85
2022/05/04 05:21:04;;;;;;;3.83;3.53;;;;;;;;;;5031504;28;20771;-84
2022/05/04 05:23:32;;;;;;;4.77;4.37;;;;;;;;;;5026210;28;20277;-83
2022/05/04 05:25:59;;;;;;;8.50;7.00;;;;;;;;;;5020490;28;20227;-84
2022/05/04 05:28:31;;;;;;;8.67;6.67;;;;;;;;;;5022297;28;20214;-84
2022/05/04 05:30:58;;;;;;;10.50;5.50;;;;;;;;;;5031535;28;20202;-84
2022/05/04 05:33:25;;;;;;;8.37;7.57;;;;;;;;;;5031744;28;20206;-85
2022/05/04 05:35:52;;;;;;;12.87;11.67;;;;;;;;;;5031583;28;20206;-84
2022/05/04 05:38:20;;;;;;;7.10;6.47;;;;;;;;;;5031736;28;20198;-81
2022/05/04 05:40:57;;;;;;;13.87;10.57;;;;;;;;;;5031348;28;20198;-86
2022/05/04 05:43:24;;;;;;;7.67;6.90;;;;;;;;;;5032017;28;20386;-85
2022/05/04 05:45:53;;;;;;;7.70;6.93;;;;;;;;;;5031457;28;20234;-84
2022/05/04 05:48:20;;;;;;;9.00;6.77;;;;;;;;;;5031464;28;20199;-81
2022/05/04 05:50:48;;;;;;;7.83;7.10;;;;;;;;;;5031419;28;20199;-81
2022/05/04 05:53:15;;;;;;;6.17;5.57;;;;;;;;;;5031886;28;20198;-81
2022/05/04 05:55:42;;;;;;;4.93;4.50;;;;;;;;;;5031437;28;20198;-81
2022/05/04 05:58:10;;;;;;;5.00;4.60;;;;;;;;;;5031530;28;20195;-81
2022/05/04 06:00:37;;;;;;;11.30;9.93;;;;;;;;;;5031435;28;20638;-82
2022/05/04 06:03:06;;;;;;;11.23;9.50;;;;;;;;;;5033406;28;20668;-81
2022/05/04 06:05:33;;;;;;;8.23;7.10;;;;;;;;;;5035276;28;20199;-82
2022/05/04 06:08:00;;;;;;;4.47;4.10;;;;;;;;;;5035298;28;20226;-81
2022/05/04 06:10:28;;;;;;;4.20;3.87;;;;;;;;;;5035182;28;20195;-81
2022/05/04 06:12:55;;;;;;;14.10;8.60;;;;;;;;;;5035181;28;20232;-81
2022/05/04 06:15:22;;;;;;;10.30;7.17;;;;;;;;;;5035083;28;20761;-80
2022/05/04 06:17:49;;;;;;;13.03;7.73;;;;;;;;;;5035242;28;20210;-81
2022/05/04 06:20:18;;;;;;;7.60;5.17;;;;;;;;;;5034954;28;20198;-81
2022/05/04 06:22:45;;;;;;;6.50;5.17;;;;;;;;;;5034789;28;20231;-81
2022/05/04 06:25:12;;;;;;;5.87;5.30;;;;;;;;;;5034832;28;20560;-81
2022/05/04 06:27:39;;;;;;;5.80;5.13;;;;;;;;;;5034950;28;20234;-80
2022/05/04 06:35:38;;;;;;;5.50;4.87;;;;;;;;;;5034828;28;20279;-81
2022/05/04 06:38:05;;;;;;;4.30;3.90;;;;;;;;;;5034837;28;20202;-82
2022/05/04 06:40:32;;;;;;;3.50;3.20;;;;;;;;;;5034620;28;20687;-81
2022/05/04 06:43:00;;;;;;;3.17;2.97;;;;;;;;;;5035084;28;20237;-81
2022/05/04 06:45:27;;;;;;;3.67;3.30;;;;;;;;;;5034821;28;20199;-81
2022/05/04 06:47:54;;;;;;;3.30;3.10;;;;;;;;;;5034659;28;20301;-81
2022/05/04 06:50:22;;;;;;;3.13;2.83;;;;;;;;;;5034269;28;20198;-81
2022/05/04 06:52:50;;;;;;;3.63;3.33;;;;;;;;;;5034507;28;20203;-81
2022/05/04 06:55:17;;;;;;;4.47;2.73;;;;;;;;;;5034579;28;20204;-82
2022/05/04 06:57:45;;;;;;;3.33;3.13;;;;;;;;;;5034787;28;20201;-81
2022/05/04 07:00:13;;;;;;;5.93;4.40;;;;;;;;;;5034220;28;20200;-81
2022/05/04 07:02:40;;;;;;;3.77;3.07;;;;;;;;;;5034475;28;20198;-81
2022/05/04 07:05:08;;;;;;;5.83;2.83;;;;;;;;;;5034277;28;20245;-81
2022/05/04 07:07:35;;;;;;;3.90;2.87;;;;;;;;;;5034448;28;20224;-81
2022/05/04 07:10:04;;;;;;;2.50;2.30;;;;;;;;;;5034383;28;20577;-82
2022/05/04 07:12:31;;;;;;;2.80;2.60;;;;;;;;;;5034007;28;20199;-81
2022/05/04 07:14:58;;;;;;;2.70;2.50;;;;;;;;;;5033370;28;20213;-80
2022/05/04 07:17:26;;;;;;;2.40;2.20;;;;;;;;;;5034117;28;20317;-81
2022/05/04 07:19:53;;;;;;;2.50;2.30;;;;;;;;;;5033694;28;20207;-80
2022/05/04 07:22:21;;;;;;;1.90;1.80;;;;;;;;;;5033998;28;20249;-81
2022/05/04 07:24:48;;;;;;;2.40;2.20;;;;;;;;;;5034130;28;20191;-81
2022/05/04 07:27:17;;;;;;;1.97;1.87;;;;;;;;;;5033851;28;20765;-81
2022/05/04 07:29:46;;;;;;;3.47;1.97;;;;;;;;;;5033458;28;20203;-81
2022/05/04 07:32:14;;;;;;;2.50;2.00;;;;;;;;;;5033888;28;20225;-81
2022/05/04 07:34:41;;;;;;;3.33;2.10;;;;;;;;;;5033945;28;20202;-81
2022/05/04 07:37:08;;;;;;;5.70;2.97;;;;;;;;;;5033653;28;20198;-81
2022/05/04 07:42:22;;;;;;;2.77;2.57;;;;;;;;;;5033758;28;20570;-82
2022/05/04 07:44:49;;;;;;;3.30;2.10;;;;;;;;;;5033707;28;20190;-81
2022/05/04 07:47:16;;;;;;;2.80;2.60;;;;;;;;;;5033497;28;20231;-81
2022/05/04 07:49:43;;;;;;;2.00;1.90;;;;;;;;;;5033418;28;20282;-81
2022/05/04 07:52:11;;;;;;;2.60;2.00;;;;;;;;;;5033788;28;20199;-81
2022/05/04 07:54:38;;;;;;;2.10;1.90;;;;;;;;;;5033255;28;20199;-81
2022/05/04 07:57:06;;;;;;;6.37;2.30;;;;;;;;;;5033151;28;20194;-82
2022/05/04 07:59:34;;;;;;;3.47;2.20;;;;;;;;;;5033068;28;20194;-81
2022/05/04 08:04:47;;;;;;;3.17;1.77;;;;;;;;;;5033186;28;20237;-81
2022/05/04 08:07:15;;;;;;;2.30;2.10;;;;;;;;;;5033157;28;20284;-81
2022/05/04 08:09:42;;;;;;;2.07;1.87;;;;;;;;;;5033005;28;20225;-81
2022/05/04 08:12:11;;;;;;;4.73;2.50;;;;;;;;;;5033396;28;20195;-82
2022/05/04 08:14:40;;;;;;;2.33;2.17;;;;;;;;;;5033228;28;20578;-81
2022/05/04 08:17:07;;;;;;;2.60;2.40;;;;;;;;;;5033090;28;20269;-81
2022/05/04 08:19:35;;;;;;;4.00;3.40;;;;;;;;;;5032858;28;20265;-81
2022/05/04 08:22:02;;;;;;;2.47;2.27;;;;;;;;;;5032693;28;20268;-81
2022/05/04 08:24:29;;;;;;;2.00;1.90;;;;;;;;;;5032699;28;20194;-82
2022/05/04 08:26:57;;;;;;;2.50;2.30;;;;;;;;;;5031584;28;20408;-81
2022/05/04 08:29:24;;;;;;;1.93;1.77;;;;;;;;;;5032523;28;20199;-82
2022/05/04 08:31:52;;;;;;;3.40;2.20;;;;;;;;;;5033126;28;20582;-81
2022/05/04 08:34:20;;;;;;;3.87;2.10;;;;;;;;;;5032505;28;20290;-81
2022/05/04 08:36:47;;;;;;;2.40;2.20;;;;;;;;;;5032644;28;20313;-81
2022/05/04 08:39:14;;;;;;;3.47;2.93;;;;;;;;;;5032116;28;20204;-81
2022/05/04 08:41:43;;;;;;;2.40;2.20;;;;;;;;;;5032869;28;20624;-81
2022/05/04 08:44:12;;;;;;;3.07;2.40;;;;;;;;;;5032287;28;20703;-81
2022/05/04 08:46:40;;;;;;;2.70;2.50;;;;;;;;;;5032733;28;20253;-81
2022/05/04 08:49:12;;;;;;;5.93;2.13;;;;;;;;;;5032003;28;20752;-81
2022/05/04 08:51:40;;;;;;;2.20;2.00;;;;;;;;;;5032418;28;20194;-81
2022/05/04 08:54:09;;;;;;;2.03;1.93;;;;;;;;;;5032359;28;20283;-81
2022/05/04 08:56:37;;;;;;;2.40;2.20;;;;;;;;;;5032076;28;20212;-81
2022/05/04 08:59:05;;;;;;;2.63;2.30;;;;;;;;;;5032118;28;20198;-81
2022/05/04 09:01:32;;;;;;;3.97;3.47;;;;;;;;;;5032168;28;20673;-82
2022/05/04 09:04:00;;;;;;;2.93;2.67;;;;;;;;;;5032111;28;20289;-81
2022/05/04 09:06:29;;;;;;;3.23;2.43;;;;;;;;;;5031940;28;20201;-81
2022/05/04 09:08:58;;;;;;;5.33;2.53;;;;;;;;;;5032285;28;20301;-81
2022/05/04 09:11:26;;;;;;;2.67;2.47;;;;;;;;;;5032389;28;20232;-81
2022/05/04 09:13:53;;;;;;;4.77;2.77;;;;;;;;;;5032014;28;20300;-81
2022/05/04 09:16:28;;;;;;;2.93;2.17;;;;;;;;;;5031954;28;20670;-81
2022/05/04 09:18:55;;;;;;;3.23;2.47;;;;;;;;;;5031690;28;20198;-81
2022/05/04 09:21:23;;;;;;;5.53;2.13;;;;;;;;;;5031771;28;20321;-81
2022/05/04 09:23:55;;;;;;;2.10;2.00;;;;;;;;;;5031864;28;20284;-81
2022/05/04 09:26:23;;;;;;;3.67;3.33;;;;;;;;;;5031843;28;20198;-82
2022/05/04 09:28:51;;;;;;;4.00;3.13;;;;;;;;;;5031578;28;20263;-81
2022/05/04 09:31:20;;;;;;;4.57;3.57;;;;;;;;;;5031739;28;20203;-82
2022/05/04 09:33:53;;;;;;;3.63;3.30;;;;;;;;;;5032081;28;20195;-81
2022/05/04 09:36:32;;;;;;;15.47;7.40;;;;;;;;;;5031759;28;20279;-82
2022/05/04 09:47:19;;;;;;;4.17;3.77;;;;;;;;;;5035831;28;20257;-81
2022/05/04 09:49:48;;;;;;;2.57;2.37;;;;;;;;;;5035352;28;20244;-82
2022/05/04 09:52:16;;;;;;;3.03;2.33;;;;;;;;;;5035750;28;20291;-82
2022/05/04 09:54:46;;;;;;;4.40;3.30;;;;;;;;;;5035564;28;20294;-81
2022/05/04 09:57:14;;;;;;;4.23;3.80;;;;;;;;;;5035699;28;20199;-81
2022/05/04 09:59:43;;;;;;;4.20;3.90;;;;;;;;;;5035649;28;20204;-81
2022/05/04 10:02:13;;;;;;;4.60;2.70;;;;;;;;;;5035552;28;20680;-81
2022/05/04 10:04:43;;;;;;;5.07;4.77;;;;;;;;;;5035572;28;20206;-81
2022/05/04 10:07:11;;;;;;;4.30;3.90;;;;;;;;;;5035378;28;20726;-81
2022/05/04 10:09:38;;;;;;;5.37;4.37;;;;;;;;;;5035246;28;20203;-82
2022/05/04 10:12:08;;;;;;;7.23;6.63;;;;;;;;;;5035109;28;20194;-82
2022/05/04 10:14:35;;;;;;;4.43;3.20;;;;;;;;;;5035114;28;20200;-81
2022/05/04 10:17:07;;;;;;;7.10;6.40;;;;;;;;;;5035288;28;20256;-82
2022/05/04 10:19:42;;;;;;;6.50;5.77;;;;;;;;;;5035019;28;20544;-81
2022/05/04 10:22:11;;;;;;;4.83;3.90;;;;;;;;;;5034683;28;20801;-81
2022/05/04 10:24:39;;;;;;;4.23;3.83;;;;;;;;;;5035271;28;20595;-82
2022/05/04 10:27:18;;;;;;;2.80;2.60;;;;;;;;;;5035012;28;20208;-82
2022/05/04 10:32:36;;;;;;;12.67;11.47;;;;;;;;;;5034946;28;20188;-82
2022/05/04 10:35:23;;;;;;;3.37;3.10;;;;;;;;;;5034686;28;20204;-82
2022/05/04 10:38:05;;;;;;;3.70;2.90;;;;;;;;;;5034787;28;20205;-82
2022/05/04 10:40:34;;;;;;;3.43;3.13;;;;;;;;;;5034729;28;20187;-82
2022/05/04 10:43:04;;;;;;;2.93;2.67;;;;;;;;;;5034535;28;20197;-82
2022/05/04 10:45:33;;;;;;;3.00;2.80;;;;;;;;;;5034550;28;20197;-82
2022/05/04 10:48:15;;;;;;;4.77;4.30;;;;;;;;;;5034665;28;20229;-82
2022/05/04 10:50:48;;;;;;;5.97;2.43;;;;;;;;;;5033690;28;20617;-82
2022/05/04 10:53:21;;;;;;;3.97;2.33;;;;;;;;;;5034615;28;20815;-82
2022/05/04 10:55:56;;;;;;;8.00;3.73;;;;;;;;;;5034700;28;20252;-82
2022/05/04 10:58:36;;;;;;;3.77;2.73;;;;;;;;;;5034436;28;20189;-82
2022/05/04 11:01:05;;;;;;;3.80;2.90;;;;;;;;;;5034133;28;20578;-81
2022/05/04 11:03:36;;;;;;;4.83;3.53;;;;;;;;;;5034692;28;20201;-81
2022/05/04 11:06:05;;;;;;;6.10;5.60;;;;;;;;;;5034524;28;20190;-81
2022/05/04 11:08:36;;;;;;;6.03;5.43;;;;;;;;;;5034228;28;20227;-82
2022/05/04 11:11:04;;;;;;;5.47;4.97;;;;;;;;;;5034120;28;20198;-82
2022/05/04 11:13:33;;;;;;;5.70;5.23;;;;;;;;;;5034181;28;20207;-82
2022/05/04 11:16:01;;;;;;;3.43;2.87;;;;;;;;;;5034013;28;20673;-82
2022/05/04 11:18:30;;;;;;;4.90;4.23;;;;;;;;;;5034165;28;20236;-82
2022/05/04 11:20:57;;;;;;;3.53;3.23;;;;;;;;;;5033801;28;20237;-82
2022/05/04 11:23:25;;;;;;;2.67;2.47;;;;;;;;;;5034386;28;20193;-81
2022/05/04 11:25:53;;;;;;;4.80;3.90;;;;;;;;;;5033786;28;20260;-82
2022/05/04 11:28:21;;;;;;;3.80;2.80;;;;;;;;;;5033589;28;20227;-82
2022/05/04 11:30:51;;;;;;;2.70;2.50;;;;;;;;;;5033803;28;20205;-81
2022/05/04 11:33:19;;;;;;;4.47;3.27;;;;;;;;;;5033917;28;20252;-82
2022/05/04 11:35:53;;;;;;;2.80;2.50;;;;;;;;;;5033642;28;20201;-82
2022/05/04 11:38:20;;;;;;;2.53;2.30;;;;;;;;;;5033553;28;20244;-82
2022/05/04 11:40:48;;;;;;;2.83;2.43;;;;;;;;;;5033907;28;20297;-81
2022/05/04 11:43:28;;;;;;;3.87;2.30;;;;;;;;;;5033742;28;20324;-81
2022/05/04 11:45:56;;;;;;;5.10;2.67;;;;;;;;;;5033556;28;20197;-81
2022/05/04 11:48:24;;;;;;;3.80;2.60;;;;;;;;;;5033814;28;20305;-81
2022/05/04 11:50:52;;;;;;;4.93;4.43;;;;;;;;;;5033092;28;20194;-81
2022/05/04 11:53:19;;;;;;;2.87;2.17;;;;;;;;;;5033480;28;20633;-82
2022/05/04 11:55:46;;;;;;;4.00;2.93;;;;;;;;;;5033243;28;20684;-81
2022/05/04 11:58:15;;;;;;;16.83;14.50;;;;;;;;;;5033665;28;20197;-81
2022/05/04 12:00:42;;;;;;;6.10;3.77;;;;;;;;;;5032820;28;20202;-82
2022/05/04 12:03:11;;;;;;;3.83;2.40;;;;;;;;;;5033363;28;20213;-82
2022/05/04 12:05:39;;;;;;;6.00;5.40;;;;;;;;;;5033462;28;20202;-81
2022/05/04 12:08:07;;;;;;;7.93;6.03;;;;;;;;;;5033414;28;20244;-82
2022/05/04 12:10:35;;;;;;;15.10;10.20;;;;;;;;;;5033004;28;20233;-81
2022/05/04 12:13:04;;;;;;;4.40;4.00;;;;;;;;;;5033390;28;20205;-81
2022/05/04 12:15:32;;;;;;;5.73;5.17;;;;;;;;;;5032855;28;20705;-82
2022/05/04 12:18:00;;;;;;;3.80;3.03;;;;;;;;;;5032959;28;20210;-82
2022/05/04 12:20:30;;;;;;;3.63;3.30;;;;;;;;;;5032811;28;20198;-82
2022/05/04 12:22:58;;;;;;;3.40;2.97;;;;;;;;;;5032493;28;20229;-82
2022/05/04 12:25:25;;;;;;;3.80;3.20;;;;;;;;;;5033008;28;20575;-82
2022/05/04 12:27:53;;;;;;;7.87;4.77;;;;;;;;;;5032710;28;20226;-82
2022/05/04 12:33:09;;;;;;;4.13;3.83;;;;;;;;;;5032964;28;20266;-82
2022/05/04 12:35:39;;;;;;;16.00;14.63;;;;;;;;;;5032572;28;20197;-82
2022/05/04 12:38:07;;;;;;;14.30;13.10;;;;;;;;;;5032908;28;20195;-82
2022/05/04 12:40:34;;;;;;;6.93;4.90;;;;;;;;;;5032213;28;20205;-82
2022/05/04 12:43:03;;;;;;;17.70;11.73;;;;;;;;;;5032547;28;20207;-82
2022/05/04 12:45:31;;;;;;;10.27;8.17;;;;;;;;;;5032287;28;20590;-82
2022/05/04 12:47:58;;;;;;;4.30;3.90;;;;;;;;;;5032390;28;20226;-82
2022/05/04 12:50:27;;;;;;;3.57;3.27;;;;;;;;;;5032211;28;20282;-82
2022/05/04 12:52:57;;;;;;;5.77;5.20;;;;;;;;;;5032443;28;20585;-82
2022/05/04 12:56:45;;;;;;;46.23;22.50;;;;;;;;;;5032398;28;20658;-82
2022/05/04 12:58:13;;;;;;;38.77;19.87;;;;;;;;;;5032104;28;20294;-82
2022/05/04 13:00:41;;;;;;;47.27;23.13;;;;;;;;;;5032247;28;20671;-82
2022/05/04 13:03:11;;;;;;;43.23;23.07;;;;;;;;;;5032244;28;20194;-82
2022/05/04 13:05:39;;;;;;;26.63;14.70;;;;;;;;;;5032069;28;20202;-82
2022/05/04 13:08:08;;;;;;;50.03;30.20;;;;;;;;;;5032360;28;20604;-82
2022/05/04 13:10:37;;;;;;;6.27;5.53;;;;;;;;;;5031969;28;20293;-82
2022/05/04 13:13:04;;;;;;;7.00;5.50;;;;;;;;;;5031595;28;20201;-82
2022/05/04 13:15:32;;;;;;;6.87;2.73;;;;;;;;;;5032204;28;20197;-82
2022/05/04 13:17:59;;;;;;;3.60;3.30;;;;;;;;;;5032296;28;20733;-82
2022/05/04 13:20:26;;;;;;;5.47;3.50;;;;;;;;;;5032076;28;20216;-82
2022/05/04 13:22:54;;;;;;;3.40;3.10;;;;;;;;;;5031606;28;20231;-82
2022/05/04 13:25:22;;;;;;;3.17;2.97;;;;;;;;;;5025867;28;20218;-82
2022/05/04 13:27:49;;;;;;;13.67;7.70;;;;;;;;;;5032189;28;20209;-82
2022/05/04 13:30:17;;;;;;;4.77;4.37;;;;;;;;;;5031654;28;20210;-82
2022/05/04 13:32:44;;;;;;;5.20;4.60;;;;;;;;;;5032194;28;20278;-82
2022/05/04 13:35:11;;;;;;;14.90;10.53;;;;;;;;;;5031670;28;20213;-82
2022/05/04 13:37:38;;;;;;;8.70;5.83;;;;;;;;;;5032182;28;20587;-82
2022/05/04 13:40:07;;;;;;;12.70;8.20;;;;;;;;;;5031602;28;20198;-82
2022/05/04 13:42:36;;;;;;;22.20;11.77;;;;;;;;;;5031815;28;20223;-82
2022/05/04 13:45:03;;;;;;;28.40;15.87;;;;;;;;;;5031606;28;20585;-81
2022/05/04 13:47:30;;;;;;;15.97;11.50;;;;;;;;;;5031737;28;20301;-81
2022/05/04 13:49:57;;;;;;;6.03;4.57;;;;;;;;;;5031283;28;20675;-82
2022/05/04 13:55:18;;;;;;;4.03;3.43;;;;;;;;;;4996022;28;20745;-82
2022/05/04 13:57:46;;;;;;;6.50;4.73;;;;;;;;;;5031922;28;20220;-82
2022/05/04 14:00:15;;;;;;;11.83;9.97;;;;;;;;;;5031420;28;20206;-82
2022/05/04 14:02:42;;;;;;;9.77;5.93;;;;;;;;;;5031609;28;20255;-82
2022/05/04 14:05:09;;;;;;;33.20;15.93;;;;;;;;;;5031295;28;20293;-82
2022/05/04 14:07:36;;;;;;;14.63;10.90;;;;;;;;;;5031714;28;20584;-82
2022/05/04 14:10:03;;;;;;;21.37;15.43;;;;;;;;;;5031304;28;20222;-82
2022/05/04 14:12:31;;;;;;;4.70;4.30;;;;;;;;;;5031279;28;20205;-82
2022/05/04 14:15:02;;;;;;;3.57;2.70;;;;;;;;;;5030357;28;20211;-81
2022/05/04 14:17:30;;;;;;;3.70;2.90;;;;;;;;;;5031471;28;20647;-82
2022/05/04 14:19:57;;;;;;;8.90;4.93;;;;;;;;;;5031186;28;20199;-82
2022/05/04 14:22:24;;;;;;;9.77;4.27;;;;;;;;;;5031065;28;20241;-81
2022/05/04 14:24:51;;;;;;;3.40;3.00;;;;;;;;;;5034539;28;20214;-82
2022/05/04 14:27:18;;;;;;;4.70;4.30;;;;;;;;;;5035333;28;20201;-82
2022/05/04 14:29:46;;;;;;;6.20;5.70;;;;;;;;;;5034609;28;20222;-82
2022/05/04 14:32:14;;;;;;;6.10;5.70;;;;;;;;;;5034886;28;20211;-81
2022/05/04 14:34:42;;;;;;;7.03;6.47;;;;;;;;;;5034365;28;20677;-81
2022/05/04 14:37:10;;;;;;;7.17;6.50;;;;;;;;;;5034893;28;20204;-82
2022/05/04 14:39:37;;;;;;;4.33;3.43;;;;;;;;;;5033790;28;20192;-81
2022/05/04 14:42:05;;;;;;;5.47;3.50;;;;;;;;;;5032031;28;20206;-82
2022/05/04 14:44:32;;;;;;;7.50;3.07;;;;;;;;;;5032906;28;20207;-82
2022/05/04 14:47:00;;;;;;;3.60;2.90;;;;;;;;;;5034472;28;20272;-82
2022/05/04 14:49:28;;;;;;;3.30;2.93;;;;;;;;;;5034892;28;20275;-82
2022/05/04 14:51:56;;;;;;;3.17;2.87;;;;;;;;;;5034629;28;20263;-82
2022/05/04 14:54:23;;;;;;;3.73;3.20;;;;;;;;;;5034465;28;20206;-83
2022/05/04 14:56:51;;;;;;;4.10;3.70;;;;;;;;;;5034141;28;20212;-81
2022/05/04 14:59:19;;;;;;;6.07;3.93;;;;;;;;;;5034611;28;20203;-81
2022/05/04 15:01:46;;;;;;;3.90;3.20;;;;;;;;;;5034377;28;20202;-81
2022/05/04 15:06:59;;;;;;;5.83;3.10;;;;;;;;;;5032620;28;20205;-82
2022/05/04 15:09:26;;;;;;;5.07;3.90;;;;;;;;;;5034359;28;20251;-81
2022/05/04 15:11:53;;;;;;;6.30;4.57;;;;;;;;;;5033565;28;20659;-81
2022/05/04 15:14:21;;;;;;;7.73;4.60;;;;;;;;;;5034140;28;20205;-81
2022/05/04 15:16:48;;;;;;;6.47;3.77;;;;;;;;;;5034180;28;20201;-81
2022/05/04 15:19:15;;;;;;;3.97;3.67;;;;;;;;;;5033973;28;20195;-81
2022/05/04 15:21:42;;;;;;;50.37;36.97;;;;;;;;;;5033881;28;20244;-81
2022/05/04 15:24:11;;;;;;;38.40;30.83;;;;;;;;;;5033898;28;20233;-82
2022/05/04 15:26:38;;;;;;;10.40;8.00;;;;;;;;;;5034013;28;20213;-81
2022/05/04 15:29:05;;;;;;;11.60;10.27;;;;;;;;;;5033899;28;20226;-81
2022/05/04 15:31:32;;;;;;;24.03;13.40;;;;;;;;;;5034207;28;20610;-82
2022/05/04 15:34:00;;;;;;;33.83;26.57;;;;;;;;;;5033746;28;20219;-82
2022/05/04 15:36:27;;;;;;;67.43;46.30;;;;;;;;;;5028897;28;20219;-81
2022/05/04 15:38:54;;;;;;;17.23;15.53;;;;;;;;;;5033531;28;20205;-81
2022/05/04 15:41:23;;;;;;;5.93;5.37;;;;;;;;;;5033798;28;20296;-81
2022/05/04 15:43:50;;;;;;;3.73;3.00;;;;;;;;;;5033564;28;20238;-81
2022/05/04 15:46:17;;;;;;;14.33;11.63;;;;;;;;;;5033560;28;20202;-81
2022/05/04 15:48:44;;;;;;;14.37;12.27;;;;;;;;;;5033407;28;20677;-81
2022/05/04 15:51:12;;;;;;;10.30;9.23;;;;;;;;;;5033816;28;20280;-81
2022/05/04 15:53:39;;;;;;;8.30;7.43;;;;;;;;;;5033402;28;20267;-81
2022/05/04 15:56:07;;;;;;;6.00;4.73;;;;;;;;;;5033294;28;20205;-81
2022/05/04 15:58:36;;;;;;;7.07;5.50;;;;;;;;;;5033267;28;20204;-81
2022/05/04 16:01:03;;;;;;;5.87;5.37;;;;;;;;;;5033600;28;20661;-81
2022/05/04 16:06:15;;;;;;;12.97;10.83;;;;;;;;;;5033562;28;20192;-81
2022/05/04 16:08:43;;;;;;;16.57;13.73;;;;;;;;;;5032726;28;20204;-81
2022/05/04 16:11:10;;;;;;;11.30;8.17;;;;;;;;;;5033948;28;20200;-81
2022/05/04 16:13:39;;;;;;;10.10;9.00;;;;;;;;;;5037609;28;20287;-81
2022/05/04 16:16:06;;;;;;;12.57;11.07;;;;;;;;;;5032842;28;20238;-81
2022/05/04 16:24:02;;;;;;;19.77;17.70;;;;;;;;;;5033068;28;20188;-81
2022/05/04 16:26:30;;;;;;;34.20;31.00;;;;;;;;;;5032367;28;20295;-80
2022/05/04 16:28:58;;;;;;;18.90;15.93;;;;;;;;;;5032689;28;20199;-80
2022/05/04 16:31:25;;;;;;;36.27;26.33;;;;;;;;;;5032559;28;20275;-81
2022/05/04 16:33:53;;;;;;;9.77;8.77;;;;;;;;;;5032746;28;20209;-81
2022/05/04 16:36:20;;;;;;;12.33;9.17;;;;;;;;;;5032589;28;20208;-81
2022/05/04 16:38:47;;;;;;;9.23;6.70;;;;;;;;;;5032789;28;20281;-81
2022/05/04 16:41:14;;;;;;;8.10;4.87;;;;;;;;;;5032461;28;20739;-81
2022/05/04 16:43:42;;;;;;;7.43;3.97;;;;;;;;;;5032329;28;20196;-81
2022/05/04 16:46:10;;;;;;;4.03;3.73;;;;;;;;;;5027343;28;20381;-81
2022/05/04 16:48:38;;;;;;;4.43;3.30;;;;;;;;;;5020314;28;20291;-81
2022/05/04 16:51:05;;;;;;;3.57;3.30;;;;;;;;;;5020181;28;20288;-81
2022/05/04 16:53:33;;;;;;;5.30;3.40;;;;;;;;;;5012343;28;20291;-81
2022/05/04 16:56:00;;;;;;;3.07;2.87;;;;;;;;;;5012372;28;20199;-81
2022/05/04 16:58:28;;;;;;;3.33;3.03;;;;;;;;;;5012796;28;20195;-81
2022/05/04 17:00:55;;;;;;;3.57;2.90;;;;;;;;;;5012166;28;20739;-82
2022/05/04 17:03:24;;;;;;;3.53;3.23;;;;;;;;;;5012495;28;20215;-81
2022/05/04 17:05:52;;;;;;;3.07;2.77;;;;;;;;;;5012035;28;20255;-82
2022/05/04 17:08:19;;;;;;;4.40;3.47;;;;;;;;;;5012369;28;20292;-81
2022/05/04 17:10:46;;;;;;;3.10;2.43;;;;;;;;;;5012000;28;20235;-81
2022/05/04 17:13:14;;;;;;;5.43;3.03;;;;;;;;;;5012301;28;20203;-81
2022/05/04 17:15:41;;;;;;;3.23;2.60;;;;;;;;;;5012312;28;20227;-81
2022/05/04 17:18:08;;;;;;;6.03;3.07;;;;;;;;;;5012677;28;20197;-81
2022/05/04 17:20:37;;;;;;;3.60;3.30;;;;;;;;;;5020223;28;20198;-81
2022/05/04 17:23:04;;;;;;;2.93;2.40;;;;;;;;;;5013602;28;20299;-81
2022/05/04 17:25:31;;;;;;;3.43;2.90;;;;;;;;;;5011620;28;20211;-81
2022/05/04 17:27:59;;;;;;;4.37;2.87;;;;;;;;;;5012415;28;20660;-81
2022/05/04 17:30:26;;;;;;;2.83;2.63;;;;;;;;;;5011647;28;20303;-82
2022/05/04 17:38:24;;;;;;;2.73;2.23;;;;;;;;;;5010584;28;20210;-82
2022/05/04 17:40:51;;;;;;;3.20;2.77;;;;;;;;;;5010855;28;20207;-81
2022/05/04 17:43:18;;;;;;;3.90;2.57;;;;;;;;;;5011081;28;20191;-81
2022/05/04 17:45:47;;;;;;;3.80;2.70;;;;;;;;;;5011105;28;20282;-81
2022/05/04 17:48:14;;;;;;;2.77;2.57;;;;;;;;;;5010896;28;20581;-82
2022/05/04 17:50:43;;;;;;;2.77;2.57;;;;;;;;;;5010402;28;20226;-82
2022/05/04 17:53:10;;;;;;;3.07;2.73;;;;;;;;;;5010695;28;20686;-81
2022/05/04 17:55:37;;;;;;;2.80;2.57;;;;;;;;;;5010815;28;20196;-81
2022/05/04 17:58:04;;;;;;;4.53;2.93;;;;;;;;;;5010987;28;20597;-81
2022/05/04 18:00:31;;;;;;;3.33;2.97;;;;;;;;;;5014991;28;20212;-81
2022/05/04 18:05:45;;;;;;;4.53;4.10;;;;;;;;;;5014060;28;20245;-80